Time;durP1;ratioP1;P1;durP2;ratioP2;P2;SDS_P1;SDS_P2;PMS_P1;PMS_P2;Temp;Humidity;BMP_temperature;BMP_pressure;BME280_temperature;BME280_humidity;BME280_pressure;Samples;Min_cycle;Max_cycle;Signal;HPM_P1;HPM_P2
2021/04/22 00:00:15;;;;;;;7.28;1.45;;;;;;;;;;5016434;28;20049;-57
2021/04/22 00:02:41;;;;;;;6.43;1.50;;;;;;;;;;5022200;28;20030;-58
2021/04/22 00:05:12;;;;;;;7.32;1.60;;;;;;;;;;5017870;28;20045;-57
2021/04/22 00:07:38;;;;;;;7.30;1.20;;;;;;;;;;5016329;28;20055;-54
2021/04/22 00:10:11;;;;;;;5.53;1.50;;;;;;;;;;5016548;28;20041;-53
2021/04/22 00:12:37;;;;;;;7.68;1.50;;;;;;;;;;5015951;28;20694;-55
2021/04/22 00:15:05;;;;;;;6.45;1.63;;;;;;;;;;5016526;28;20037;-57
2021/04/22 00:17:30;;;;;;;6.53;1.50;;;;;;;;;;5015871;28;20067;-56
2021/04/22 00:19:56;;;;;;;4.10;1.45;;;;;;;;;;5017164;28;20436;-56
2021/04/22 00:22:22;;;;;;;4.47;1.10;;;;;;;;;;5030524;28;20045;-55
2021/04/22 00:24:49;;;;;;;4.82;1.23;;;;;;;;;;5015928;28;20942;-56
2021/04/22 00:27:15;;;;;;;4.43;1.20;;;;;;;;;;5018147;28;20090;-56
2021/04/22 00:29:43;;;;;;;2.95;1.00;;;;;;;;;;5019332;28;20526;-55
2021/04/22 00:32:09;;;;;;;3.28;1.00;;;;;;;;;;5021067;28;20069;-57
2021/04/22 00:34:35;;;;;;;5.57;0.98;;;;;;;;;;5018472;28;20177;-58
2021/04/22 00:37:01;;;;;;;3.80;1.00;;;;;;;;;;5019373;28;20041;-58
2021/04/22 00:39:27;;;;;;;3.33;1.20;;;;;;;;;;5018197;28;20065;-57
2021/04/22 00:41:52;;;;;;;2.47;0.90;;;;;;;;;;5019738;28;20107;-58
2021/04/22 00:44:19;;;;;;;3.22;1.00;;;;;;;;;;5021259;28;20037;-58
2021/04/22 00:46:45;;;;;;;8.43;1.40;;;;;;;;;;5020994;28;20063;-56
2021/04/22 00:49:11;;;;;;;5.60;1.10;;;;;;;;;;5021309;28;20490;-53
2021/04/22 00:51:37;;;;;;;3.47;0.85;;;;;;;;;;5020072;28;20053;-57
2021/04/22 00:54:02;;;;;;;4.22;0.90;;;;;;;;;;5019416;28;20050;-57
2021/04/22 00:56:29;;;;;;;5.90;1.20;;;;;;;;;;5018006;28;20038;-57
2021/04/22 00:58:55;;;;;;;7.00;1.10;;;;;;;;;;5033786;28;20507;-57
2021/04/22 01:01:21;;;;;;;8.07;1.17;;;;;;;;;;5017509;28;20046;-58
2021/04/22 01:03:47;;;;;;;6.10;1.50;;;;;;;;;;5018547;28;20052;-55
2021/04/22 01:06:13;;;;;;;7.75;1.08;;;;;;;;;;5018074;28;20077;-56
2021/04/22 01:08:39;;;;;;;8.63;1.40;;;;;;;;;;5018012;28;20742;-58
2021/04/22 01:11:06;;;;;;;12.02;1.30;;;;;;;;;;5019124;28;20045;-56
2021/04/22 01:13:32;;;;;;;14.35;1.30;;;;;;;;;;5018555;28;20041;-56
2021/04/22 01:15:58;;;;;;;7.40;1.02;;;;;;;;;;5018825;28;20041;-56
2021/04/22 01:18:24;;;;;;;6.15;1.10;;;;;;;;;;5018534;28;20041;-58
2021/04/22 01:20:55;;;;;;;3.85;1.10;;;;;;;;;;5018151;28;20056;-54
2021/04/22 01:23:21;;;;;;;8.43;1.23;;;;;;;;;;5018556;28;20037;-53
2021/04/22 01:25:48;;;;;;;7.97;1.40;;;;;;;;;;5018528;28;20057;-54
2021/04/22 01:28:14;;;;;;;5.30;1.30;;;;;;;;;;5018183;28;20053;-56
2021/04/22 01:30:45;;;;;;;17.27;2.22;;;;;;;;;;5017628;28;20057;-56
2021/04/22 01:33:13;;;;;;;8.43;1.33;;;;;;;;;;5018864;28;20510;-55
2021/04/22 01:35:41;;;;;;;3.58;1.10;;;;;;;;;;5017342;28;20076;-56
2021/04/22 01:38:08;;;;;;;6.30;0.90;;;;;;;;;;5017994;28;20037;-55
2021/04/22 01:40:35;;;;;;;3.60;1.35;;;;;;;;;;5016954;28;20132;-54
2021/04/22 01:43:01;;;;;;;3.90;0.90;;;;;;;;;;5018363;28;20056;-55
2021/04/22 01:45:27;;;;;;;7.07;1.10;;;;;;;;;;5018006;28;21066;-56
2021/04/22 01:47:54;;;;;;;2.80;0.90;;;;;;;;;;5017759;28;20056;-56
2021/04/22 01:50:21;;;;;;;5.43;1.13;;;;;;;;;;5016329;28;20030;-57
2021/04/22 01:52:47;;;;;;;3.38;0.93;;;;;;;;;;5017026;28;20045;-57
2021/04/22 01:55:15;;;;;;;4.78;1.00;;;;;;;;;;5017153;28;20115;-56
2021/04/22 01:57:41;;;;;;;4.90;1.05;;;;;;;;;;5032352;28;20137;-56
2021/04/22 02:00:10;;;;;;;4.15;0.90;;;;;;;;;;5018419;28;20123;-55
2021/04/22 02:02:36;;;;;;;6.60;1.10;;;;;;;;;;5017358;28;20103;-56
2021/04/22 02:05:02;;;;;;;3.25;1.10;;;;;;;;;;5017929;28;20121;-56
2021/04/22 02:07:28;;;;;;;4.80;1.42;;;;;;;;;;5014418;28;20054;-57
2021/04/22 02:09:54;;;;;;;6.38;1.17;;;;;;;;;;5026517;28;20482;-55
2021/04/22 02:12:20;;;;;;;8.07;1.02;;;;;;;;;;5015897;28;20038;-53
2021/04/22 02:14:45;;;;;;;33.90;3.20;;;;;;;;;;5017102;28;20536;-56
2021/04/22 02:17:11;;;;;;;5.10;1.40;;;;;;;;;;5016785;28;20119;-53
2021/04/22 02:19:37;;;;;;;4.13;1.33;;;;;;;;;;5015565;28;20049;-56
2021/04/22 02:22:03;;;;;;;3.40;0.93;;;;;;;;;;5013923;28;20551;-51
2021/04/22 02:24:29;;;;;;;3.90;1.10;;;;;;;;;;5015087;28;20041;-55
2021/04/22 02:26:55;;;;;;;3.25;0.98;;;;;;;;;;5031151;28;20065;-55
2021/04/22 02:29:21;;;;;;;5.25;1.30;;;;;;;;;;5014381;28;20131;-55
2021/04/22 02:31:47;;;;;;;7.45;1.20;;;;;;;;;;5015479;28;20119;-52
2021/04/22 02:34:13;;;;;;;5.10;1.40;;;;;;;;;;5016275;28;20505;-55
2021/04/22 02:36:39;;;;;;;11.63;1.40;;;;;;;;;;5014591;28;20034;-55
2021/04/22 02:39:05;;;;;;;6.13;1.30;;;;;;;;;;5015786;28;20052;-56
2021/04/22 02:41:31;;;;;;;2.70;0.90;;;;;;;;;;5015215;28;20081;-54
2021/04/22 02:43:57;;;;;;;5.90;1.10;;;;;;;;;;5015342;28;20061;-55
2021/04/22 02:46:23;;;;;;;5.72;2.15;;;;;;;;;;5015173;28;20141;-56
2021/04/22 02:48:49;;;;;;;3.00;1.10;;;;;;;;;;5015911;28;20037;-56
2021/04/22 02:51:15;;;;;;;6.25;1.20;;;;;;;;;;5015478;28;22216;-55
2021/04/22 02:53:41;;;;;;;3.88;1.38;;;;;;;;;;5014863;28;20445;-55
2021/04/22 02:56:07;;;;;;;11.48;1.50;;;;;;;;;;5016328;28;20033;-55
2021/04/22 02:58:33;;;;;;;8.88;1.63;;;;;;;;;;5015641;28;20037;-55
2021/04/22 03:00:59;;;;;;;15.80;1.58;;;;;;;;;;5016533;28;20064;-55
2021/04/22 03:03:25;;;;;;;99.25;5.72;;;;;;;;;;5015161;28;20103;-55
2021/04/22 03:05:51;;;;;;;35.78;2.85;;;;;;;;;;5015249;28;20041;-56
2021/04/22 03:08:17;;;;;;;28.98;2.33;;;;;;;;;;5015758;28;20397;-55
2021/04/22 03:10:43;;;;;;;12.60;1.40;;;;;;;;;;5015112;28;20045;-53
2021/04/22 03:13:09;;;;;;;11.02;1.60;;;;;;;;;;5016103;28;20374;-54
2021/04/22 03:15:35;;;;;;;13.18;1.52;;;;;;;;;;5014606;28;20041;-55
2021/04/22 03:18:02;;;;;;;17.65;1.80;;;;;;;;;;5016080;28;21998;-55
2021/04/22 03:20:28;;;;;;;13.23;1.35;;;;;;;;;;5030503;28;20044;-55
2021/04/22 03:22:54;;;;;;;8.88;1.30;;;;;;;;;;5015283;28;20030;-55
2021/04/22 03:25:21;;;;;;;7.38;1.30;;;;;;;;;;5014747;28;20041;-52
2021/04/22 03:27:47;;;;;;;18.38;1.80;;;;;;;;;;5015263;28;20164;-54
2021/04/22 03:30:15;;;;;;;26.92;2.05;;;;;;;;;;5012255;28;20581;-54
2021/04/22 03:32:43;;;;;;;14.90;1.58;;;;;;;;;;5014884;28;20041;-56
2021/04/22 03:35:10;;;;;;;11.35;1.23;;;;;;;;;;5015651;28;20030;-53
2021/04/22 03:37:35;;;;;;;13.57;1.30;;;;;;;;;;5015316;28;20038;-54
2021/04/22 03:40:02;;;;;;;10.07;1.10;;;;;;;;;;5015983;28;20113;-55
2021/04/22 03:42:27;;;;;;;6.32;1.17;;;;;;;;;;5014419;28;20057;-55
2021/04/22 03:44:53;;;;;;;4.15;1.10;;;;;;;;;;5014927;28;21879;-55
2021/04/22 03:47:19;;;;;;;6.57;1.00;;;;;;;;;;5015547;28;20037;-56
2021/04/22 03:49:45;;;;;;;5.60;1.10;;;;;;;;;;5015809;28;20413;-57
2021/04/22 03:52:11;;;;;;;5.43;1.30;;;;;;;;;;5016075;28;20067;-57
2021/04/22 03:54:37;;;;;;;4.40;0.93;;;;;;;;;;5014540;28;20561;-55
2021/04/22 03:57:04;;;;;;;12.32;0.93;;;;;;;;;;5015459;28;20062;-54
2021/04/22 03:59:30;;;;;;;7.60;1.02;;;;;;;;;;5016141;28;20040;-55
2021/04/22 04:01:56;;;;;;;6.82;1.40;;;;;;;;;;5016940;28;20107;-53
2021/04/22 04:04:21;;;;;;;13.70;1.15;;;;;;;;;;5019412;28;20041;-51
2021/04/22 04:06:48;;;;;;;9.80;1.33;;;;;;;;;;5019966;28;20049;-55
2021/04/22 04:09:14;;;;;;;8.93;0.93;;;;;;;;;;5020142;28;20045;-57
2021/04/22 04:11:40;;;;;;;11.10;2.10;;;;;;;;;;5019192;28;20067;-53
2021/04/22 04:14:05;;;;;;;4.40;1.23;;;;;;;;;;5020132;28;20055;-56
2021/04/22 04:16:31;;;;;;;3.65;0.80;;;;;;;;;;5019980;28;22121;-55
2021/04/22 04:18:57;;;;;;;5.53;1.08;;;;;;;;;;5020613;28;20120;-55
2021/04/22 04:21:23;;;;;;;2.78;0.90;;;;;;;;;;5014485;28;20048;-57
2021/04/22 04:23:50;;;;;;;4.78;1.00;;;;;;;;;;5019267;28;20037;-56
2021/04/22 04:26:16;;;;;;;3.55;1.00;;;;;;;;;;5019498;28;20452;-57
2021/04/22 04:28:42;;;;;;;4.13;1.05;;;;;;;;;;5019103;28;20069;-56
2021/04/22 04:31:08;;;;;;;6.03;0.80;;;;;;;;;;5019087;28;20121;-56
2021/04/22 04:33:34;;;;;;;6.75;1.25;;;;;;;;;;5018533;28;20033;-56
2021/04/22 04:35:59;;;;;;;7.53;1.60;;;;;;;;;;5018302;28;20132;-55
2021/04/22 04:38:25;;;;;;;5.93;1.00;;;;;;;;;;5018094;28;20043;-53
2021/04/22 04:40:51;;;;;;;7.43;1.98;;;;;;;;;;5018387;28;20073;-54
2021/04/22 04:43:17;;;;;;;17.42;2.08;;;;;;;;;;5020222;28;20055;-55
2021/04/22 04:45:43;;;;;;;16.17;1.52;;;;;;;;;;5025103;28;20084;-54
2021/04/22 04:48:09;;;;;;;10.15;1.20;;;;;;;;;;5019589;28;20730;-56
2021/04/22 04:50:35;;;;;;;6.90;1.27;;;;;;;;;;5015213;28;20026;-54
2021/04/22 04:53:01;;;;;;;4.07;0.95;;;;;;;;;;5014142;28;20037;-57
2021/04/22 04:55:27;;;;;;;4.93;1.13;;;;;;;;;;5016513;28;22080;-55
2021/04/22 04:57:53;;;;;;;2.35;0.70;;;;;;;;;;5018358;28;20065;-55
2021/04/22 05:00:19;;;;;;;6.05;0.90;;;;;;;;;;5018856;28;20708;-55
2021/04/22 05:02:46;;;;;;;3.05;0.68;;;;;;;;;;5018934;28;20045;-53
2021/04/22 05:05:12;;;;;;;7.25;1.17;;;;;;;;;;5017962;28;20053;-56
2021/04/22 05:07:38;;;;;;;2.72;0.80;;;;;;;;;;5015800;28;20060;-55
2021/04/22 05:10:10;;;;;;;3.10;0.80;;;;;;;;;;5017920;28;20168;-57
2021/04/22 05:12:36;;;;;;;2.72;0.88;;;;;;;;;;5017488;28;20115;-57
2021/04/22 05:15:02;;;;;;;3.45;1.08;;;;;;;;;;5016356;28;20524;-58
2021/04/22 05:17:28;;;;;;;4.07;1.02;;;;;;;;;;5016515;28;20796;-57
2021/04/22 05:19:54;;;;;;;2.45;0.77;;;;;;;;;;5018391;28;20478;-56
2021/04/22 05:22:20;;;;;;;2.10;0.80;;;;;;;;;;5017350;28;20168;-57
2021/04/22 05:24:46;;;;;;;6.43;1.10;;;;;;;;;;5016701;28;20029;-58
2021/04/22 05:27:11;;;;;;;4.88;1.15;;;;;;;;;;5017713;28;20053;-57
2021/04/22 05:29:37;;;;;;;2.60;0.85;;;;;;;;;;5016144;28;20056;-58
2021/04/22 05:32:03;;;;;;;4.22;1.25;;;;;;;;;;5017927;28;20580;-58
2021/04/22 05:34:30;;;;;;;2.70;0.90;;;;;;;;;;5016077;28;20135;-58
2021/04/22 05:36:56;;;;;;;4.97;1.13;;;;;;;;;;5018312;28;20045;-58
2021/04/22 05:39:22;;;;;;;3.85;1.10;;;;;;;;;;5016801;28;20033;-58
2021/04/22 05:41:52;;;;;;;5.43;1.25;;;;;;;;;;5017449;28;20163;-57
2021/04/22 05:44:20;;;;;;;5.47;1.33;;;;;;;;;;5017579;28;20037;-57
2021/04/22 05:46:46;;;;;;;3.85;1.05;;;;;;;;;;5018332;28;20057;-57
2021/04/22 05:49:12;;;;;;;2.72;1.00;;;;;;;;;;5018350;28;20090;-57
2021/04/22 05:51:39;;;;;;;3.20;1.35;;;;;;;;;;5017047;28;20060;-58
2021/04/22 05:54:08;;;;;;;3.22;1.38;;;;;;;;;;5018226;28;20046;-58
2021/04/22 05:56:34;;;;;;;3.25;0.90;;;;;;;;;;5018015;28;20422;-57
2021/04/22 05:59:00;;;;;;;10.73;1.13;;;;;;;;;;5018473;28;20044;-57
2021/04/22 06:01:26;;;;;;;6.45;1.20;;;;;;;;;;5017241;28;20041;-58
2021/04/22 06:03:52;;;;;;;4.93;1.08;;;;;;;;;;5018246;28;20072;-58
2021/04/22 06:06:18;;;;;;;6.78;1.58;;;;;;;;;;5016022;28;20045;-57
2021/04/22 06:08:46;;;;;;;4.35;1.20;;;;;;;;;;5018618;28;20507;-55
2021/04/22 06:11:12;;;;;;;3.17;0.95;;;;;;;;;;5026562;28;20140;-57
2021/04/22 06:13:38;;;;;;;5.18;1.08;;;;;;;;;;5018205;28;20044;-56
2021/04/22 06:16:04;;;;;;;2.20;0.90;;;;;;;;;;5019479;28;20268;-57
2021/04/22 06:18:30;;;;;;;3.70;1.20;;;;;;;;;;5018516;28;20401;-56
2021/04/22 06:20:56;;;;;;;2.55;0.90;;;;;;;;;;5016489;28;20038;-58
2021/04/22 06:23:21;;;;;;;2.95;1.15;;;;;;;;;;5012124;28;20037;-58
2021/04/22 06:25:47;;;;;;;3.35;1.02;;;;;;;;;;5016237;28;20037;-57
2021/04/22 06:28:15;;;;;;;5.25;1.20;;;;;;;;;;5017423;28;20026;-58
2021/04/22 06:30:40;;;;;;;5.57;1.00;;;;;;;;;;5016458;28;20041;-57
2021/04/22 06:33:06;;;;;;;3.90;1.00;;;;;;;;;;5017796;28;20662;-57
2021/04/22 06:35:32;;;;;;;2.85;1.10;;;;;;;;;;5016109;28;20145;-57
2021/04/22 06:37:58;;;;;;;2.45;0.90;;;;;;;;;;5018055;28;20075;-58
2021/04/22 06:40:24;;;;;;;4.32;1.10;;;;;;;;;;5016756;28;20064;-58
2021/04/22 06:42:51;;;;;;;3.95;1.10;;;;;;;;;;5018180;28;20048;-57
2021/04/22 06:45:17;;;;;;;3.17;1.05;;;;;;;;;;5016564;28;20049;-57
2021/04/22 06:47:43;;;;;;;4.43;1.17;;;;;;;;;;5031070;28;20165;-57
2021/04/22 06:50:11;;;;;;;2.88;1.10;;;;;;;;;;5011687;28;20100;-57
2021/04/22 06:52:38;;;;;;;6.38;1.38;;;;;;;;;;5015494;28;20069;-57
2021/04/22 06:55:09;;;;;;;3.63;1.20;;;;;;;;;;5016439;28;20052;-55
2021/04/22 06:57:35;;;;;;;6.25;1.48;;;;;;;;;;5015069;28;20540;-57
2021/04/22 07:00:00;;;;;;;4.00;0.90;;;;;;;;;;5017874;28;20109;-57
2021/04/22 07:02:26;;;;;;;5.32;1.00;;;;;;;;;;5015740;28;20137;-57
2021/04/22 07:04:53;;;;;;;3.95;1.02;;;;;;;;;;5016534;28;20698;-57
2021/04/22 07:07:19;;;;;;;2.80;1.27;;;;;;;;;;5015486;28;20507;-56
2021/04/22 07:09:45;;;;;;;3.75;1.05;;;;;;;;;;5016880;28;20068;-57
2021/04/22 07:12:11;;;;;;;3.28;1.10;;;;;;;;;;5016071;28;20402;-57
2021/04/22 07:14:37;;;;;;;8.15;1.70;;;;;;;;;;5030755;28;20068;-58
2021/04/22 07:17:02;;;;;;;4.35;1.10;;;;;;;;;;5016817;28;20148;-57
2021/04/22 07:19:28;;;;;;;5.20;1.20;;;;;;;;;;5016476;28;20602;-55
2021/04/22 07:21:54;;;;;;;7.38;1.40;;;;;;;;;;5017128;28;20072;-57
2021/04/22 07:24:20;;;;;;;3.03;1.30;;;;;;;;;;5015036;28;20694;-58
2021/04/22 07:26:46;;;;;;;4.80;1.67;;;;;;;;;;5016353;28;20053;-57
2021/04/22 07:29:32;;;;;;;3.30;1.20;;;;;;;;;;4994757;28;20111;-58
2021/04/22 07:31:58;;;;;;;3.30;1.20;;;;;;;;;;4993889;28;20042;-57
2021/04/22 07:34:24;;;;;;;2.60;1.00;;;;;;;;;;4994538;28;20042;-58
2021/04/22 07:36:49;;;;;;;2.90;1.10;;;;;;;;;;4996839;28;20117;-58
2021/04/22 07:39:15;;;;;;;2.50;1.05;;;;;;;;;;4999888;28;21131;-57
2021/04/22 07:41:41;;;;;;;3.05;1.15;;;;;;;;;;4997626;28;20062;-57
2021/04/22 07:44:07;;;;;;;3.38;1.10;;;;;;;;;;4998382;28;20042;-55
2021/04/22 07:46:33;;;;;;;4.65;1.30;;;;;;;;;;4997495;28;20050;-58
2021/04/22 07:48:59;;;;;;;3.10;1.10;;;;;;;;;;4997666;28;20038;-57
2021/04/22 07:51:25;;;;;;;2.70;1.10;;;;;;;;;;4998738;28;20477;-56
2021/04/22 07:53:52;;;;;;;2.72;1.15;;;;;;;;;;4999372;28;20105;-57
2021/04/22 07:56:18;;;;;;;3.33;1.10;;;;;;;;;;4989629;28;20310;-57
2021/04/22 07:58:44;;;;;;;3.88;1.30;;;;;;;;;;4998817;28;20403;-57
2021/04/22 08:01:10;;;;;;;4.45;1.58;;;;;;;;;;5000655;28;20033;-57
2021/04/22 08:03:36;;;;;;;4.40;0.90;;;;;;;;;;5018280;28;20041;-57
2021/04/22 08:06:02;;;;;;;3.20;1.00;;;;;;;;;;5026643;28;20781;-57
2021/04/22 08:08:28;;;;;;;3.13;1.30;;;;;;;;;;5006783;28;20060;-57
2021/04/22 08:10:55;;;;;;;3.20;0.95;;;;;;;;;;5019121;28;20398;-57
2021/04/22 08:13:22;;;;;;;2.90;1.10;;;;;;;;;;5018424;28;20048;-56
2021/04/22 08:15:49;;;;;;;2.53;0.90;;;;;;;;;;5019670;28;20073;-56
2021/04/22 08:18:15;;;;;;;2.63;1.02;;;;;;;;;;5019171;28;20037;-56
2021/04/22 08:20:41;;;;;;;3.17;0.93;;;;;;;;;;5034404;28;20053;-56
2021/04/22 08:23:08;;;;;;;3.35;1.15;;;;;;;;;;5019934;28;20041;-56
2021/04/22 08:25:36;;;;;;;3.13;1.00;;;;;;;;;;5017437;28;20034;-58
2021/04/22 08:28:03;;;;;;;3.40;1.52;;;;;;;;;;5018910;28;20080;-57
2021/04/22 08:30:33;;;;;;;3.97;1.50;;;;;;;;;;5018807;28;20037;-58
2021/04/22 08:33:00;;;;;;;2.60;1.05;;;;;;;;;;5019322;28;20033;-57
2021/04/22 08:35:26;;;;;;;3.00;1.10;;;;;;;;;;5018828;28;20060;-56
2021/04/22 08:37:53;;;;;;;3.63;1.20;;;;;;;;;;5020032;28;20068;-57
2021/04/22 08:40:19;;;;;;;3.10;1.00;;;;;;;;;;5033813;28;20075;-57
2021/04/22 08:42:45;;;;;;;3.45;1.20;;;;;;;;;;5019857;28;20041;-57
2021/04/22 08:45:12;;;;;;;3.17;1.10;;;;;;;;;;5017692;28;20049;-57
2021/04/22 08:47:39;;;;;;;3.38;1.25;;;;;;;;;;5019275;28;20046;-58
2021/04/22 08:50:06;;;;;;;4.88;1.20;;;;;;;;;;5019983;28;20120;-58
2021/04/22 08:52:32;;;;;;;3.28;1.33;;;;;;;;;;5019559;28;20069;-56
2021/04/22 08:54:58;;;;;;;2.85;0.75;;;;;;;;;;5019929;28;20184;-57
2021/04/22 08:57:25;;;;;;;3.10;1.20;;;;;;;;;;5020166;28;20037;-57
2021/04/22 08:59:53;;;;;;;4.25;1.30;;;;;;;;;;5021291;28;20041;-58
2021/04/22 09:02:19;;;;;;;3.58;1.40;;;;;;;;;;5018658;28;20033;-57
2021/04/22 09:04:46;;;;;;;4.00;1.10;;;;;;;;;;5018809;28;20060;-58
2021/04/22 09:07:12;;;;;;;3.63;1.17;;;;;;;;;;5020224;28;20092;-58
2021/04/22 09:09:37;;;;;;;4.00;1.20;;;;;;;;;;5018179;28;20056;-57
2021/04/22 09:12:13;;;;;;;3.78;1.50;;;;;;;;;;5019710;28;20025;-57
2021/04/22 09:14:39;;;;;;;2.90;1.23;;;;;;;;;;5018391;28;20121;-57
2021/04/22 09:17:16;;;;;;;3.65;1.40;;;;;;;;;;5019565;28;20060;-53
2021/04/22 09:19:42;;;;;;;3.25;1.48;;;;;;;;;;5019450;28;20079;-57
2021/04/22 09:22:08;;;;;;;3.70;1.55;;;;;;;;;;5034470;28;20104;-58
2021/04/22 09:24:34;;;;;;;4.95;1.02;;;;;;;;;;5028786;28;20076;-57
2021/04/22 09:27:04;;;;;;;3.20;1.20;;;;;;;;;;5026869;28;20763;-57
2021/04/22 09:29:35;;;;;;;3.78;1.45;;;;;;;;;;5019927;28;20442;-57
2021/04/22 09:32:08;;;;;;;4.00;1.52;;;;;;;;;;5019591;28;20502;-57
2021/04/22 09:34:34;;;;;;;;;;;;;;;;;;5019009;28;20037;-57
2021/04/22 09:37:00;;;;;;;3.40;1.50;;;;;;;;;;5019376;28;20685;-58
2021/04/22 09:39:27;;;;;;;3.42;1.20;;;;;;;;;;5018685;28;20033;-55
2021/04/22 09:41:58;;;;;;;4.35;1.80;;;;;;;;;;5018571;28;20045;-57
2021/04/22 09:44:24;;;;;;;4.30;1.30;;;;;;;;;;5018072;28;20444;-58
2021/04/22 09:47:01;;;;;;;5.68;1.90;;;;;;;;;;5017355;28;20049;-58
2021/04/22 09:49:27;;;;;;;3.53;1.30;;;;;;;;;;5018350;28;20042;-57
2021/04/22 09:51:52;;;;;;;3.88;1.25;;;;;;;;;;4999317;28;20042;-58
2021/04/22 09:54:22;;;;;;;4.18;1.88;;;;;;;;;;5016968;28;20060;-56
2021/04/22 09:56:48;;;;;;;4.75;1.70;;;;;;;;;;5018369;28;20045;-58
2021/04/22 09:59:18;;;;;;;17.48;1.73;;;;;;;;;;5018139;28;20103;-58
2021/04/22 10:01:48;;;;;;;3.30;1.40;;;;;;;;;;5017106;28;20057;-59
2021/04/22 10:04:16;;;;;;;6.72;1.83;;;;;;;;;;5018307;28;20033;-58
2021/04/22 10:06:43;;;;;;;4.18;1.80;;;;;;;;;;5017494;28;20057;-57
2021/04/22 10:09:09;;;;;;;3.05;1.30;;;;;;;;;;5017817;28;20029;-57
2021/04/22 10:11:45;;;;;;;3.63;1.38;;;;;;;;;;5032222;28;20778;-58
2021/04/22 10:14:11;;;;;;;3.80;1.73;;;;;;;;;;5018385;28;20628;-58
2021/04/22 10:16:37;;;;;;;5.00;1.65;;;;;;;;;;5017815;28;20357;-59
2021/04/22 10:19:13;;;;;;;2.80;1.10;;;;;;;;;;5019285;28;20043;-58
2021/04/22 10:21:42;;;;;;;3.25;1.38;;;;;;;;;;5016929;28;20117;-59
2021/04/22 10:24:09;;;;;;;2.65;1.08;;;;;;;;;;5018144;28;20065;-59
2021/04/22 10:26:34;;;;;;;2.05;0.70;;;;;;;;;;5017415;28;20444;-56
2021/04/22 10:29:00;;;;;;;1.73;0.68;;;;;;;;;;5020320;28;20137;-58
2021/04/22 10:31:26;;;;;;;1.65;0.50;;;;;;;;;;5017591;28;20041;-59
2021/04/22 10:33:53;;;;;;;0.93;0.40;;;;;;;;;;5018323;28;20076;-59
2021/04/22 10:36:22;;;;;;;2.05;0.50;;;;;;;;;;5018327;28;20037;-59
2021/04/22 10:38:51;;;;;;;2.40;0.70;;;;;;;;;;5018168;28;20041;-59
2021/04/22 10:41:18;;;;;;;2.55;0.80;;;;;;;;;;5016857;28;20116;-59
2021/04/22 10:43:44;;;;;;;2.65;0.80;;;;;;;;;;5017695;28;20104;-59
2021/04/22 10:46:10;;;;;;;2.80;0.98;;;;;;;;;;5033945;28;20068;-59
2021/04/22 10:48:36;;;;;;;2.92;1.10;;;;;;;;;;5018200;28;20578;-57
2021/04/22 10:51:05;;;;;;;3.63;1.40;;;;;;;;;;5017506;28;20233;-58
2021/04/22 10:53:31;;;;;;;2.40;0.90;;;;;;;;;;5014750;28;20842;-57
2021/04/22 10:55:57;;;;;;;2.60;0.85;;;;;;;;;;5017920;28;20056;-57
2021/04/22 10:58:23;;;;;;;2.70;1.05;;;;;;;;;;5018258;28;20033;-57
2021/04/22 11:00:51;;;;;;;3.88;1.90;;;;;;;;;;5018827;28;20034;-57
2021/04/22 11:03:27;;;;;;;3.85;1.95;;;;;;;;;;5017594;28;20056;-57
2021/04/22 11:05:56;;;;;;;3.70;2.03;;;;;;;;;;5005805;28;20411;-57
2021/04/22 11:08:30;;;;;;;3.75;1.73;;;;;;;;;;5031553;28;20441;-57
2021/04/22 11:10:56;;;;;;;4.00;1.90;;;;;;;;;;5016422;28;20045;-58
2021/04/22 11:13:32;;;;;;;3.47;1.65;;;;;;;;;;5016537;28;20069;-58
2021/04/22 11:16:04;;;;;;;4.35;1.85;;;;;;;;;;5017142;28;20050;-57
2021/04/22 11:18:38;;;;;;;4.07;1.95;;;;;;;;;;5016204;28;20046;-57
2021/04/22 11:21:03;;;;;;;;;;;;;;;;;;5016549;28;20065;-57
2021/04/22 11:23:38;;;;;;;23.77;2.53;;;;;;;;;;5015923;28;20004;-57
2021/04/22 11:26:04;;;;;;;3.72;1.67;;;;;;;;;;5016784;28;20237;-59
2021/04/22 11:28:31;;;;;;;3.53;1.58;;;;;;;;;;5016880;28;20113;-58
2021/04/22 11:31:07;;;;;;;3.70;1.48;;;;;;;;;;5016169;28;20064;-58
2021/04/22 11:33:33;;;;;;;3.40;1.20;;;;;;;;;;5011128;28;20041;-57
2021/04/22 11:36:09;;;;;;;3.13;1.20;;;;;;;;;;5016281;28;20060;-57
2021/04/22 11:38:35;;;;;;;3.03;0.93;;;;;;;;;;5014959;28;20517;-57
2021/04/22 11:41:06;;;;;;;2.05;0.60;;;;;;;;;;5015496;28;20052;-57
2021/04/22 11:43:32;;;;;;;2.50;0.90;;;;;;;;;;5016141;28;20056;-57
2021/04/22 11:45:59;;;;;;;2.53;0.93;;;;;;;;;;5016063;28;20041;-57
2021/04/22 11:48:26;;;;;;;2.75;1.15;;;;;;;;;;5016244;28;20140;-57
2021/04/22 11:50:57;;;;;;;3.22;1.40;;;;;;;;;;5016172;28;20100;-56
2021/04/22 11:53:32;;;;;;;3.05;1.35;;;;;;;;;;5016381;28;20295;-57
2021/04/22 11:55:59;;;;;;;4.18;1.50;;;;;;;;;;5016042;28;20040;-57
2021/04/22 11:58:25;;;;;;;3.53;1.50;;;;;;;;;;5016188;28;20044;-57
2021/04/22 12:00:55;;;;;;;4.10;1.88;;;;;;;;;;5015581;28;20612;-58
2021/04/22 12:03:28;;;;;;;4.68;2.05;;;;;;;;;;5016349;28;20065;-58
2021/04/22 12:05:54;;;;;;;3.47;1.63;;;;;;;;;;5012185;28;21087;-58
2021/04/22 12:08:26;;;;;;;4.68;1.77;;;;;;;;;;5015339;28;22717;-57
2021/04/22 12:10:52;;;;;;;3.30;1.33;;;;;;;;;;5014139;28;20042;-57
2021/04/22 12:13:20;;;;;;;3.35;1.55;;;;;;;;;;5013542;28;20489;-58
2021/04/22 12:15:48;;;;;;;3.30;1.45;;;;;;;;;;5015477;28;20069;-58
2021/04/22 12:18:24;;;;;;;2.83;1.20;;;;;;;;;;5015657;28;20037;-58
2021/04/22 12:20:50;;;;;;;4.05;1.73;;;;;;;;;;5007221;28;20056;-57
2021/04/22 12:23:26;;;;;;;3.65;1.83;;;;;;;;;;5017082;28;20127;-58
2021/04/22 12:25:52;;;;;;;3.10;1.13;;;;;;;;;;5019582;28;20125;-57
2021/04/22 12:28:18;;;;;;;2.95;1.02;;;;;;;;;;5019419;28;20623;-57
2021/04/22 12:30:47;;;;;;;3.28;1.45;;;;;;;;;;5016699;28;20536;-57
2021/04/22 12:33:15;;;;;;;3.78;1.17;;;;;;;;;;5018999;28;20056;-56
2021/04/22 12:35:52;;;;;;;3.38;1.35;;;;;;;;;;5019034;28;20462;-56
2021/04/22 12:38:18;;;;;;;4.00;1.77;;;;;;;;;;5018010;28;20069;-58
2021/04/22 12:40:45;;;;;;;5.35;2.45;;;;;;;;;;5018609;28;20124;-57
2021/04/22 12:43:10;;;;;;;4.72;2.70;;;;;;;;;;5018285;28;20053;-58
2021/04/22 12:45:39;;;;;;;4.55;2.15;;;;;;;;;;5018491;28;20057;-56
2021/04/22 12:48:07;;;;;;;4.53;2.22;;;;;;;;;;5017439;28;20147;-56
2021/04/22 12:50:35;;;;;;;5.28;2.60;;;;;;;;;;5017210;28;20052;-57
2021/04/22 12:53:16;;;;;;;5.30;2.42;;;;;;;;;;5019147;28;20037;-57
2021/04/22 12:55:55;;;;;;;4.93;2.58;;;;;;;;;;5017332;28;20045;-57
2021/04/22 12:58:23;;;;;;;4.55;2.00;;;;;;;;;;5017057;28;20124;-54
2021/04/22 13:00:50;;;;;;;5.80;2.78;;;;;;;;;;5018084;28;20043;-57
2021/04/22 13:03:20;;;;;;;4.68;2.30;;;;;;;;;;5017771;28;20063;-56
2021/04/22 13:05:48;;;;;;;4.72;2.42;;;;;;;;;;5010891;28;20033;-58
2021/04/22 13:08:14;;;;;;;5.70;2.75;;;;;;;;;;5018697;28;20052;-57
2021/04/22 13:10:41;;;;;;;5.43;2.72;;;;;;;;;;5017977;28;20042;-56
2021/04/22 13:13:08;;;;;;;5.57;3.33;;;;;;;;;;5018427;28;20512;-56
2021/04/22 13:15:34;;;;;;;4.47;2.22;;;;;;;;;;5017313;28;20393;-57
2021/04/22 13:18:18;;;;;;;5.93;2.83;;;;;;;;;;5017189;28;20790;-56
2021/04/22 13:20:46;;;;;;;6.28;3.30;;;;;;;;;;5013776;28;20063;-56
2021/04/22 13:23:12;;;;;;;6.22;3.00;;;;;;;;;;5014710;28;20463;-56
2021/04/22 13:25:39;;;;;;;5.50;2.85;;;;;;;;;;5016488;28;20041;-56
2021/04/22 13:28:06;;;;;;;5.20;2.85;;;;;;;;;;5017239;28;20049;-57
2021/04/22 13:30:33;;;;;;;4.70;2.17;;;;;;;;;;5007478;28;20038;-56
2021/04/22 13:33:03;;;;;;;7.03;4.20;;;;;;;;;;5016157;28;20115;-54
2021/04/22 13:35:29;;;;;;;5.55;3.13;;;;;;;;;;5016125;28;20129;-57
2021/04/22 13:37:55;;;;;;;4.53;2.42;;;;;;;;;;5016400;28;20042;-56
2021/04/22 13:40:23;;;;;;;5.30;2.17;;;;;;;;;;5016270;28;20037;-58
2021/04/22 13:42:49;;;;;;;3.63;1.77;;;;;;;;;;5018893;28;20635;-57
2021/04/22 13:45:16;;;;;;;5.53;2.80;;;;;;;;;;5019063;28;20045;-57
2021/04/22 13:47:42;;;;;;;5.65;2.55;;;;;;;;;;5015651;28;20065;-57
2021/04/22 13:50:08;;;;;;;6.72;2.97;;;;;;;;;;5016414;28;20039;-55
2021/04/22 13:52:36;;;;;;;5.90;3.03;;;;;;;;;;5013613;28;20505;-54
2021/04/22 13:55:03;;;;;;;6.97;3.88;;;;;;;;;;5013181;28;20034;-56
2021/04/22 13:57:30;;;;;;;7.68;3.42;;;;;;;;;;4985661;28;20114;-57
2021/04/22 13:59:59;;;;;;;6.55;3.35;;;;;;;;;;5006322;28;20621;-56
2021/04/22 14:02:32;;;;;;;5.50;2.22;;;;;;;;;;5005484;28;20048;-56
2021/04/22 14:04:58;;;;;;;6.85;2.03;;;;;;;;;;5008845;28;20051;-56
2021/04/22 14:07:27;;;;;;;15.85;3.15;;;;;;;;;;5022173;28;20056;-56
2021/04/22 14:09:59;;;;;;;5.30;2.60;;;;;;;;;;5007586;28;20048;-57
2021/04/22 14:12:33;;;;;;;4.45;1.90;;;;;;;;;;5008393;28;20156;-56
2021/04/22 14:15:00;;;;;;;6.40;3.05;;;;;;;;;;5009067;28;20037;-57
2021/04/22 14:17:26;;;;;;;6.15;2.85;;;;;;;;;;5007732;28;20044;-57
2021/04/22 14:19:52;;;;;;;4.45;1.73;;;;;;;;;;5009513;28;20046;-57
2021/04/22 14:22:18;;;;;;;4.10;1.98;;;;;;;;;;5008142;28;20041;-56
2021/04/22 14:24:44;;;;;;;17.02;2.00;;;;;;;;;;5007860;28;20132;-57
2021/04/22 14:27:11;;;;;;;11.52;2.30;;;;;;;;;;5013353;28;20495;-57
2021/04/22 14:29:37;;;;;;;4.05;1.52;;;;;;;;;;5006174;28;20041;-56
2021/04/22 14:32:03;;;;;;;4.53;1.70;;;;;;;;;;5008185;28;20049;-56
2021/04/22 14:34:29;;;;;;;3.50;1.35;;;;;;;;;;5007235;28;20033;-57
2021/04/22 14:36:55;;;;;;;4.60;2.15;;;;;;;;;;5009599;28;20049;-58
2021/04/22 14:39:22;;;;;;;4.20;1.70;;;;;;;;;;5009151;28;20076;-57
2021/04/22 14:41:49;;;;;;;4.15;1.60;;;;;;;;;;5007836;28;20049;-58